Caledonia, Missouri
Current Conditions -  °F | °C
As of 2:35 AM on Friday 28 Nov 2014 (Local Time) from KFAM Reporting Station
Clear Clear  
Wind Chill: -6°   Ceiling: Unl
Heat Index: -3°   Visibility: 8mi
Dew Point: -4°   Wind: 5mph
Humidity: 93%   Direction: 150°SSE
Pressure: 30.36"   Gusts: NA
Location:  37.76°N, 90.77°W
Report Text: KFAM 280835Z AUTO 15004KT 8SM CLR M03/M04 A3036 RMK AO1
Loading
Personal Weather Stations






























Interactive Weather Map New forecast layout! Learn more

10-Day Weather Forecast

Advertisements
Track Severe Weather on mobile